Terminal Aerodrome Forecast
Issued by NWS

Home | Current Version | Previous Version | Text Only | Print | Product List | Glossary On
Versions: 1 2 3 4 5 6 7 8 9 10 11 12 13 14
000
FTUS42 TJSJ 181700
TAFJBQ
TAF
TJBQ 181739Z 1818/1918 08018G26KT P6SM VCSH SCT022 SCT050 SCT070
      TEMPO 1818/1822 09020G29KT 4SM SHRA BKN022
     FM182330 09012KT P6SM FEW030 SCT080
     FM190800 10008KT P6SM VCSH SCT022 SCT050
     FM191430 07017KT P6SM SCT025 SCT060=

USA.gov is the U.S. government's official web portal to all federal, state and local government web resources and services.